Time;durP1;ratioP1;P1;durP2;ratioP2;P2;SDS_P1;SDS_P2;PMS_P1;PMS_P2;Temp;Humidity;BMP_temperature;BMP_pressure;BME280_temperature;BME280_humidity;BME280_pressure;Samples;Min_cycle;Max_cycle;Signal;HPM_P1;HPM_P2
2021/01/11 00:00:11;;;;;;;42.00;13.13;;;;;;;-3.25;91.72;100157.91;5076072;28;20048;-69
2021/01/11 00:02:41;;;;;;;35.10;13.32;;;;;;;-3.17;91.29;100155.88;5075982;28;20512;-68
2021/01/11 00:05:13;;;;;;;33.92;12.65;;;;;;;-3.24;91.44;100159.63;5076205;28;20118;-69
2021/01/11 00:07:41;;;;;;;38.70;13.97;;;;;;;-3.23;92.04;100153.84;5074318;28;20036;-68
2021/01/11 00:10:11;;;;;;;36.10;12.27;;;;;;;-3.87;91.50;100060.91;5075803;28;20051;-69
2021/01/11 00:12:46;;;;;;;41.92;14.88;;;;;;;-3.40;91.66;100146.97;5076403;28;20045;-69
2021/01/11 00:15:18;;;;;;;42.05;14.82;;;;;;;-3.40;91.86;100146.97;5074685;28;20060;-69
2021/01/11 00:17:47;;;;;;;43.80;15.02;;;;;;;-3.33;91.44;100144.09;5075752;28;20048;-69
2021/01/11 00:20:17;;;;;;;48.70;14.75;;;;;;;-3.31;91.80;100146.69;5075455;28;20512;-69
2021/01/11 00:22:51;;;;;;;45.97;14.95;;;;;;;-3.35;91.48;100145.63;5074840;28;20375;-69
2021/01/11 00:25:21;;;;;;;54.25;17.48;;;;;;;-3.92;91.89;100057.28;5075562;28;20124;-68
2021/01/11 00:27:48;;;;;;;43.17;15.25;;;;;;;-3.39;91.43;100153.69;5075433;28;20044;-68
2021/01/11 00:30:19;;;;;;;40.85;15.13;;;;;;;-3.40;92.08;100149.47;5075476;28;20048;-68
2021/01/11 00:32:46;;;;;;;39.17;15.68;;;;;;;-3.40;91.48;100154.47;5075479;28;20132;-68
2021/01/11 00:35:14;;;;;;;43.10;15.18;;;;;;;-3.38;91.59;100144.59;5075379;28;20051;-68
2021/01/11 00:37:47;;;;;;;51.72;17.88;;;;;;;-3.47;91.50;100144.88;5075381;28;20559;-68
2021/01/11 00:40:15;;;;;;;42.33;17.42;;;;;;;-3.40;92.14;100147.84;5075290;28;20049;-68
2021/01/11 00:42:42;;;;;;;43.53;15.68;;;;;;;-3.44;91.70;100155.03;5075130;28;20041;-67
2021/01/11 00:45:16;;;;;;;48.33;16.45;;;;;;;-3.46;91.90;100147.47;5075294;28;20063;-67
2021/01/11 00:47:45;;;;;;;51.10;16.85;;;;;;;-4.73;91.88;99934.31;5075089;28;20037;-68
2021/01/11 00:50:15;;;;;;;48.95;16.90;;;;;;;-3.50;91.89;100140.56;5075061;28;20055;-67
2021/01/11 00:52:49;;;;;;;52.83;19.60;;;;;;;-3.38;92.42;100136.31;5075064;28;20056;-69
2021/01/11 00:55:27;;;;;;;52.97;17.50;;;;;;;-3.46;91.76;100132.53;5075073;28;20119;-68
2021/01/11 00:58:04;;;;;;;38.35;14.48;;;;;;;-3.50;91.59;100139.69;5073736;28;20055;-68
2021/01/11 01:00:40;;;;;;;40.17;14.07;;;;;;;-3.53;91.79;100132.03;5074956;28;20055;-68
2021/01/11 01:03:22;;;;;;;46.50;16.25;;;;;;;-3.51;91.53;100130.50;5073569;28;20048;-68
2021/01/11 01:05:50;;;;;;;50.63;15.90;;;;;;;-3.59;91.92;100134.13;5074763;28;20132;-68
2021/01/11 01:08:21;;;;;;;45.45;15.95;;;;;;;-3.62;92.18;100128.97;5074709;28;20072;-67
2021/01/11 01:10:52;;;;;;;42.47;15.50;;;;;;;-3.80;91.97;100090.44;5074732;28;20094;-68
2021/01/11 01:13:23;;;;;;;51.35;15.27;;;;;;;-3.54;92.14;100125.31;5074658;28;20067;-68
2021/01/11 01:15:51;;;;;;;44.97;16.92;;;;;;;-3.50;91.80;100129.72;5074493;28;20033;-68
2021/01/11 01:18:19;;;;;;;39.97;13.95;;;;;;;-3.59;92.11;100125.03;5074505;28;20113;-68
2021/01/11 01:20:48;;;;;;;42.63;14.80;;;;;;;-3.65;91.64;100122.19;5074391;28;20464;-67
2021/01/11 01:23:19;;;;;;;43.65;14.80;;;;;;;-3.73;91.16;100124.94;5074406;28;20053;-67
2021/01/11 01:25:47;;;;;;;40.05;14.85;;;;;;;-3.79;92.01;100120.44;5074349;28;20166;-67
2021/01/11 01:28:14;;;;;;;45.50;16.48;;;;;;;-3.72;91.97;100119.22;5074297;28;20555;-67
2021/01/11 01:30:42;;;;;;;41.85;14.27;;;;;;;-3.80;91.88;100092.94;5074237;28;20101;-68
2021/01/11 01:33:12;;;;;;;37.10;13.68;;;;;;;-3.68;91.80;100118.63;5075295;28;20440;-68
2021/01/11 01:35:43;;;;;;;45.20;15.30;;;;;;;-3.74;91.80;100113.28;5074249;28;20066;-68
2021/01/11 01:38:12;;;;;;;36.17;13.20;;;;;;;-3.72;91.79;100116.72;5074160;28;20052;-68
2021/01/11 01:40:41;;;;;;;38.50;13.65;;;;;;;-3.73;91.60;100114.97;5073966;28;20462;-68
2021/01/11 01:43:09;;;;;;;39.58;14.18;;;;;;;-3.77;91.92;100118.06;5074037;28;20273;-69
2021/01/11 01:45:36;;;;;;;36.33;14.65;;;;;;;-3.73;91.42;100107.50;5073980;28;20115;-68
2021/01/11 01:48:06;;;;;;;35.97;14.55;;;;;;;-3.78;91.78;100107.22;5073646;28;20127;-68
2021/01/11 01:50:36;;;;;;;30.27;13.38;;;;;;;-3.82;91.48;100104.44;5073975;28;20050;-69
2021/01/11 01:53:05;;;;;;;34.97;13.38;;;;;;;-3.84;91.71;100105.97;5073942;28;20101;-68
2021/01/11 01:55:36;;;;;;;34.63;13.48;;;;;;;-4.09;91.45;100077.03;5073864;28;20041;-68
2021/01/11 01:58:10;;;;;;;34.00;13.38;;;;;;;-3.94;91.06;100099.56;5073977;28;20071;-68
2021/01/11 02:00:41;;;;;;;35.53;13.95;;;;;;;-3.97;91.15;100098.50;5073895;28;20102;-68
2021/01/11 02:03:09;;;;;;;38.42;12.90;;;;;;;-3.88;91.35;100094.06;5073658;28;20128;-68
2021/01/11 02:05:37;;;;;;;30.23;13.38;;;;;;;-3.84;91.26;100096.84;5073705;28;20041;-68
2021/01/11 02:08:10;;;;;;;37.63;13.60;;;;;;;-3.91;91.33;100093.91;5073653;28;20048;-68
2021/01/11 02:10:51;;;;;;;27.02;11.98;;;;;;;-3.93;91.35;100095.41;5073765;28;20052;-68
2021/01/11 02:13:36;;;;;;;30.40;11.93;;;;;;;-3.88;91.19;100089.09;5073658;28;20123;-69
2021/01/11 02:16:09;;;;;;;31.83;13.00;;;;;;;-3.93;91.20;100095.41;5073691;28;20053;-68
2021/01/11 02:18:47;;;;;;;32.30;12.73;;;;;;;-4.00;91.17;100088.31;5073605;28;20097;-68
2021/01/11 02:21:44;;;;;;;36.67;13.50;;;;;;;-3.98;91.33;100076.84;5073822;28;20051;-67
2021/01/11 02:24:43;;;;;;;28.33;11.82;;;;;;;-4.00;90.72;100080.84;5068590;28;20647;-67
2021/01/11 02:27:33;;;;;;;34.47;13.63;;;;;;;-4.01;91.17;100066.69;5073547;28;20054;-67
2021/01/11 02:30:13;;;;;;;30.73;13.85;;;;;;;-4.23;90.96;100059.47;5073554;28;20105;-67
2021/01/11 02:32:46;;;;;;;32.63;12.70;;;;;;;-4.18;90.73;100070.59;5073545;28;20489;-67
2021/01/11 02:35:19;;;;;;;32.88;13.90;;;;;;;-4.27;90.56;100057.56;5073497;28;20048;-69
2021/01/11 02:37:48;;;;;;;28.98;12.27;;;;;;;-4.13;90.99;100067.63;5073734;28;20076;-68
2021/01/11 02:40:22;;;;;;;31.00;13.00;;;;;;;-4.15;90.93;100059.19;5073397;28;20571;-67
2021/01/11 02:42:50;;;;;;;29.35;12.40;;;;;;;-4.13;90.72;100057.66;5073325;28;20049;-67
2021/01/11 02:45:19;;;;;;;30.30;13.32;;;;;;;-4.11;90.39;100053.66;5075651;28;20433;-67
2021/01/11 02:48:08;;;;;;;32.92;13.25;;;;;;;-4.04;90.54;100056.50;5077291;28;20045;-70
2021/01/11 02:50:51;;;;;;;30.65;13.40;;;;;;;-4.07;90.50;100058.06;5077272;28;20072;-68
2021/01/11 02:53:33;;;;;;;30.38;12.30;;;;;;;-4.15;91.01;100049.22;5077392;28;20486;-68
2021/01/11 02:56:03;;;;;;;27.90;12.13;;;;;;;-4.10;90.20;100057.84;5077304;28;20048;-68
2021/01/11 02:58:46;;;;;;;31.02;13.13;;;;;;;-4.07;91.04;100053.06;5077267;28;20052;-69
2021/01/11 03:01:29;;;;;;;37.30;13.85;;;;;;;-4.09;90.51;100043.75;5077246;28;20055;-68
2021/01/11 03:04:01;;;;;;;28.65;13.38;;;;;;;-4.09;90.26;100046.25;5077115;28;20521;-69
2021/01/11 03:06:32;;;;;;;29.95;12.00;;;;;;;-4.12;90.38;100054.41;5077093;28;20053;-69
2021/01/11 03:09:05;;;;;;;32.75;12.20;;;;;;;-4.15;90.42;100046.72;5076981;28;20064;-68
2021/01/11 03:11:37;;;;;;;32.55;13.15;;;;;;;-4.13;90.11;100051.81;5076947;28;20094;-68
2021/01/11 03:14:05;;;;;;;35.38;13.60;;;;;;;-4.17;90.50;100052.38;5076983;28;20079;-68
2021/01/11 03:16:33;;;;;;;28.38;12.50;;;;;;;-4.28;90.34;100039.28;5076824;28;20040;-68
2021/01/11 03:19:02;;;;;;;34.92;13.68;;;;;;;-4.28;90.37;100035.91;5077447;28;20052;-69
2021/01/11 03:21:33;;;;;;;32.38;12.68;;;;;;;-4.20;89.83;100043.09;5076997;28;20098;-68
2021/01/11 03:24:01;;;;;;;31.00;13.38;;;;;;;-4.17;90.00;100040.78;5076757;28;20041;-68
2021/01/11 03:26:30;;;;;;;32.05;13.32;;;;;;;-4.14;89.82;100031.03;5076945;28;20045;-68
2021/01/11 03:28:59;;;;;;;;;;;;;;;-4.14;90.05;100036.00;5077029;28;20170;-68
2021/01/11 03:31:31;;;;;;;33.35;12.98;;;;;;;-4.14;89.68;100026.03;5076649;28;19920;-68
2021/01/11 03:34:02;;;;;;;32.35;11.73;;;;;;;-4.24;89.73;100033.69;5076468;28;20040;-69
2021/01/11 03:36:30;;;;;;;30.48;13.75;;;;;;;-4.12;90.08;100034.47;5076510;28;20113;-68
2021/01/11 03:38:59;;;;;;;32.17;13.85;;;;;;;-4.09;89.53;100029.69;5076392;28;20383;-68
2021/01/11 03:41:27;;;;;;;27.48;12.80;;;;;;;-4.12;89.82;100036.97;5076334;28;20068;-68
2021/01/11 03:43:57;;;;;;;29.75;12.88;;;;;;;-4.09;89.93;100029.69;5076152;28;20059;-68
2021/01/11 03:46:25;;;;;;;30.70;12.43;;;;;;;-3.99;89.81;100025.25;5076297;28;20037;-68
2021/01/11 03:48:53;;;;;;;26.40;11.55;;;;;;;-4.06;89.09;100024.03;5075960;28;20049;-69
2021/01/11 03:51:22;;;;;;;31.40;12.52;;;;;;;-4.13;89.71;100029.41;5076515;28;20113;-69
2021/01/11 03:53:53;;;;;;;32.95;13.25;;;;;;;-4.15;89.19;100029.28;5076189;28;20052;-68
2021/01/11 03:56:21;;;;;;;27.48;12.20;;;;;;;-4.19;89.28;100027.38;5075875;28;20372;-68
2021/01/11 03:58:55;;;;;;;30.73;12.35;;;;;;;-4.28;88.93;100026.81;5076133;28;20059;-68
2021/01/11 04:01:22;;;;;;;32.60;13.00;;;;;;;-4.20;88.88;100024.81;5076050;28;20044;-68
2021/01/11 04:03:50;;;;;;;30.45;13.00;;;;;;;-4.30;88.90;100023.38;5075830;28;20045;-68
2021/01/11 04:06:20;;;;;;;27.95;12.02;;;;;;;-4.35;88.45;100019.72;5076235;28;20041;-68
2021/01/11 04:08:49;;;;;;;27.02;11.52;;;;;;;-4.36;89.03;100025.47;5076224;28;20061;-68
2021/01/11 04:11:19;;;;;;;30.10;12.97;;;;;;;-4.39;88.34;100022.78;5075876;28;20049;-68
2021/01/11 04:13:49;;;;;;;27.95;12.55;;;;;;;-4.55;88.56;99997.69;5075895;28;20124;-68
2021/01/11 04:16:19;;;;;;;27.48;11.40;;;;;;;-4.46;88.22;100027.28;5075740;28;20052;-68
2021/01/11 04:18:50;;;;;;;29.92;12.25;;;;;;;-4.32;88.58;100024.03;5075776;28;20049;-69
2021/01/11 04:21:18;;;;;;;31.20;12.88;;;;;;;-4.34;88.31;100021.44;5075584;28;20041;-68
2021/01/11 04:23:45;;;;;;;27.63;12.50;;;;;;;-4.28;88.32;100021.84;5075562;28;20468;-68
2021/01/11 04:26:14;;;;;;;27.65;11.88;;;;;;;-4.38;87.92;100019.53;5075531;28;20068;-68
2021/01/11 04:28:42;;;;;;;24.63;9.50;;;;;;;-4.40;87.82;100026.03;5075568;28;20090;-68
2021/01/11 04:31:11;;;;;;;29.33;13.27;;;;;;;-4.47;87.71;100028.91;5075411;28;20286;-68
2021/01/11 04:33:39;;;;;;;28.63;11.52;;;;;;;-4.62;87.56;100032.91;5075772;28;20056;-68
2021/01/11 04:36:07;;;;;;;30.80;12.75;;;;;;;-4.54;87.64;100030.91;5075361;28;20044;-68
2021/01/11 04:38:35;;;;;;;30.35;11.43;;;;;;;-4.51;87.39;100029.47;5075352;28;20044;-68
2021/01/11 04:41:03;;;;;;;28.45;11.23;;;;;;;-4.48;87.66;100032.16;5075240;28;20036;-69
2021/01/11 04:43:40;;;;;;;29.08;12.32;;;;;;;-4.36;87.66;100022.97;5075144;28;20041;-68
2021/01/11 04:46:10;;;;;;;29.95;12.15;;;;;;;-4.28;87.03;100026.81;5075253;28;20402;-69
2021/01/11 04:48:38;;;;;;;31.40;12.70;;;;;;;-4.14;87.30;100016.06;5074859;28;20064;-68
2021/01/11 04:51:06;;;;;;;25.42;11.75;;;;;;;-4.17;87.08;100020.88;5075163;28;20090;-68
2021/01/11 04:53:35;;;;;;;28.20;11.25;;;;;;;-4.20;87.27;100020.66;5074987;28;20127;-68
2021/01/11 04:56:06;;;;;;;27.52;11.63;;;;;;;-4.20;86.88;100027.31;5075040;28;20055;-68
2021/01/11 04:58:53;;;;;;;27.65;12.45;;;;;;;-4.14;86.88;100026.03;5074875;28;20072;-68
2021/01/11 05:01:23;;;;;;;24.58;10.77;;;;;;;-4.17;87.16;100023.34;5074978;28;20076;-68
2021/01/11 05:03:58;;;;;;;28.00;12.10;;;;;;;-4.12;87.20;100019.53;5074810;28;20040;-68
2021/01/11 05:06:26;;;;;;;31.60;11.30;;;;;;;-4.05;86.97;100023.25;5073825;28;20053;-68
2021/01/11 05:09:04;;;;;;;29.02;12.05;;;;;;;-4.12;86.82;100019.53;5074183;28;20044;-68
2021/01/11 05:11:32;;;;;;;25.45;12.52;;;;;;;-4.24;86.45;100018.75;5074746;28;20056;-69
2021/01/11 05:14:00;;;;;;;29.73;12.10;;;;;;;-4.33;86.42;100028.16;5074547;28;20044;-68
2021/01/11 05:16:28;;;;;;;26.60;11.60;;;;;;;-4.35;86.67;100029.69;5074600;28;20052;-69
2021/01/11 05:19:22;;;;;;;26.75;12.40;;;;;;;-4.35;86.36;100039.66;5074602;28;20262;-68
2021/01/11 05:21:51;;;;;;;26.63;11.23;;;;;;;-4.30;86.40;100017.53;5074869;28;20076;-68
2021/01/11 05:24:31;;;;;;;30.27;12.13;;;;;;;-4.11;86.34;100035.34;5074364;28;20135;-68
2021/01/11 05:27:06;;;;;;;27.48;11.82;;;;;;;-4.16;86.31;100045.03;5074382;28;20132;-68
2021/01/11 05:29:40;;;;;;;27.13;11.93;;;;;;;-4.20;86.49;100044.75;5074198;28;20052;-68
2021/01/11 05:32:10;;;;;;;30.80;11.60;;;;;;;-4.46;85.91;100030.63;5074192;28;20064;-69
2021/01/11 05:34:45;;;;;;;27.13;11.32;;;;;;;-4.12;86.34;100051.91;5074187;28;20068;-69
2021/01/11 05:37:31;;;;;;;24.90;11.57;;;;;;;-4.08;85.61;100053.81;5074252;28;20106;-68
2021/01/11 05:40:11;;;;;;;26.83;11.52;;;;;;;-4.31;85.75;100011.66;5074142;28;20106;-68
2021/01/11 05:42:40;;;;;;;28.52;11.43;;;;;;;-4.04;85.86;100046.53;5074116;28;20045;-68
2021/01/11 05:45:14;;;;;;;25.48;10.48;;;;;;;-4.02;85.75;100050.84;5074017;28;20098;-68
2021/01/11 05:47:57;;;;;;;27.20;11.13;;;;;;;-4.04;85.28;100052.41;5074012;28;20041;-68
2021/01/11 05:50:30;;;;;;;23.85;10.70;;;;;;;-4.07;84.89;100049.72;5074059;28;20064;-68
2021/01/11 05:52:58;;;;;;;31.40;11.35;;;;;;;-4.26;84.93;100049.31;5074144;28;20055;-68
2021/01/11 05:55:27;;;;;;;24.23;11.20;;;;;;;-5.93;84.61;99788.97;5073884;28;20122;-68
2021/01/11 05:58:00;;;;;;;39.10;18.42;;;;;;;-4.37;84.90;100055.25;5073670;28;20068;-68
2021/01/11 06:00:30;;;;;;;27.80;12.73;;;;;;;-4.30;84.88;100047.41;5074121;28;20095;-68
2021/01/11 06:02:59;;;;;;;29.20;13.10;;;;;;;-4.43;85.10;100050.75;5073714;28;20051;-68
2021/01/11 06:05:31;;;;;;;24.58;11.02;;;;;;;-4.67;85.17;100039.22;5073818;28;20071;-68
2021/01/11 06:08:08;;;;;;;32.00;14.52;;;;;;;-4.72;85.12;100038.06;5073730;28;20380;-67
2021/01/11 06:10:36;;;;;;;34.40;15.55;;;;;;;-4.61;84.67;100049.59;5074043;28;20037;-68
2021/01/11 06:13:08;;;;;;;43.83;17.13;;;;;;;-4.60;84.51;100056.28;5073638;28;20045;-67
2021/01/11 06:15:38;;;;;;;42.97;17.50;;;;;;;-4.61;85.05;100059.53;5073770;28;20292;-68
2021/01/11 06:18:09;;;;;;;39.03;16.40;;;;;;;-4.62;85.03;100057.81;5073450;28;20056;-68
2021/01/11 06:20:45;;;;;;;30.80;13.93;;;;;;;-5.19;84.58;99942.94;5073021;28;20048;-68
2021/01/11 06:23:27;;;;;;;32.92;12.88;;;;;;;-4.40;84.63;100060.03;5073544;28;20072;-68
2021/01/11 06:25:56;;;;;;;31.95;13.18;;;;;;;-4.30;84.79;100057.38;5073621;28;20060;-68
2021/01/11 06:28:32;;;;;;;28.10;13.25;;;;;;;-4.30;84.84;100053.25;5073417;28;20079;-68
2021/01/11 06:31:11;;;;;;;35.25;14.73;;;;;;;-4.21;84.42;100053.84;5073503;28;20513;-68
2021/01/11 06:33:40;;;;;;;;;;;;;;;-4.16;84.93;100049.13;5073901;28;20055;-68
2021/01/11 06:36:20;;;;;;;36.65;14.38;;;;;;;-4.12;84.35;100059.38;5073404;28;19920;-68
2021/01/11 06:38:51;;;;;;;40.95;15.43;;;;;;;-4.14;84.38;100063.41;5072234;28;20054;-68
2021/01/11 06:41:20;;;;;;;39.92;15.93;;;;;;;-4.16;84.22;100061.59;5073425;28;20036;-70
2021/01/11 06:43:52;;;;;;;40.72;15.77;;;;;;;-4.21;84.76;100066.28;5073268;28;20126;-68
2021/01/11 06:46:47;;;;;;;29.88;11.88;;;;;;;-4.11;84.76;100057.75;5073668;28;20502;-68
2021/01/11 06:49:27;;;;;;;31.48;12.20;;;;;;;-4.00;84.33;100063.41;5072037;28;20056;-68
2021/01/11 06:52:09;;;;;;;31.75;12.35;;;;;;;-3.95;83.94;100062.06;5073320;28;20056;-68
2021/01/11 06:54:41;;;;;;;30.33;12.05;;;;;;;-4.09;84.07;100043.75;5073241;28;20048;-68
2021/01/11 06:57:12;;;;;;;29.75;12.55;;;;;;;-3.88;84.30;100069.16;5073253;28;20044;-68
2021/01/11 06:59:44;;;;;;;31.40;13.23;;;;;;;-3.63;83.39;100068.28;5073179;28;20135;-68
2021/01/11 07:02:25;;;;;;;30.27;12.77;;;;;;;-3.13;83.31;100067.94;5073196;28;20085;-68
2021/01/11 07:04:56;;;;;;;26.10;12.40;;;;;;;-2.99;83.34;100067.97;5073181;28;20068;-68
2021/01/11 07:07:28;;;;;;;27.38;11.65;;;;;;;-3.16;82.94;100067.75;5073152;28;20056;-68
2021/01/11 07:09:58;;;;;;;;;;;;;;;-3.15;83.03;100069.47;5073528;28;20051;-68
2021/01/11 07:12:28;;;;;;;32.25;12.95;;;;;;;-3.12;82.42;100074.66;5073093;28;20014;-68
2021/01/11 07:15:02;;;;;;;41.22;17.65;;;;;;;-2.87;82.40;100068.69;5073051;28;20044;-68
2021/01/11 07:17:42;;;;;;;41.45;16.42;;;;;;;-1.55;81.70;100069.44;5072170;28;20080;-68
2021/01/11 07:20:13;;;;;;;39.13;15.57;;;;;;;-0.50;79.86;100073.16;5072999;28;20127;-68
2021/01/11 07:22:42;;;;;;;29.77;12.65;;;;;;;-0.14;78.72;100071.56;5072904;28;20391;-68
2021/01/11 07:25:21;;;;;;;31.63;13.23;;;;;;;-1.00;74.94;100067.28;5072976;28;20056;-68
2021/01/11 07:27:55;;;;;;;27.92;14.05;;;;;;;-1.71;75.95;100071.91;5071760;28;20048;-68
2021/01/11 07:30:24;;;;;;;25.25;12.45;;;;;;;-1.78;75.83;100082.38;5073661;28;20052;-68
2021/01/11 07:32:53;;;;;;;24.40;12.32;;;;;;;-1.80;76.38;100081.41;5076517;28;20483;-69
2021/01/11 07:35:21;;;;;;;;;;;;;;;-1.85;76.89;100085.31;5076981;28;20498;-70
2021/01/11 07:37:49;;;;;;;26.08;12.00;;;;;;;-1.83;77.10;100077.88;5076463;28;20106;-70
2021/01/11 07:40:17;;;;;;;29.85;13.15;;;;;;;-1.40;76.67;100087.78;5076433;28;20049;-69
2021/01/11 07:42:44;;;;;;;26.30;12.73;;;;;;;-1.03;76.25;100093.03;5076247;28;20117;-70
2021/01/11 07:45:13;;;;;;;25.88;12.13;;;;;;;-0.99;76.11;100069.88;5076574;28;20429;-71
2021/01/11 07:47:51;;;;;;;23.70;12.05;;;;;;;-1.17;76.03;100093.97;5076307;28;20486;-68
2021/01/11 07:50:20;;;;;;;28.25;12.50;;;;;;;-1.29;76.58;100103.34;5076059;28;20044;-68
2021/01/11 07:52:55;;;;;;;27.40;12.45;;;;;;;-1.21;76.28;100098.72;5076286;28;20135;-71
2021/01/11 07:55:28;;;;;;;31.73;12.25;;;;;;;-1.19;76.44;100099.66;5076173;28;20068;-68
2021/01/11 07:58:01;;;;;;;31.05;12.98;;;;;;;-1.00;76.55;100102.34;5076501;28;20110;-70
2021/01/11 08:00:29;;;;;;;35.80;15.68;;;;;;;-1.06;76.20;100087.88;5076290;28;20075;-70
2021/01/11 08:03:00;;;;;;;36.67;15.05;;;;;;;-0.67;76.57;100101.53;5075969;28;20059;-70
2021/01/11 08:05:33;;;;;;;35.92;14.23;;;;;;;-0.44;76.58;100102.69;5076215;28;20041;-70
2021/01/11 08:08:04;;;;;;;28.77;13.05;;;;;;;-0.28;76.23;100096.00;5075943;28;20403;-70
2021/01/11 08:10:34;;;;;;;24.33;11.93;;;;;;;-0.33;75.73;100084.88;5090026;28;20389;-70
2021/01/11 08:13:06;;;;;;;23.63;11.87;;;;;;;-0.35;74.48;100073.91;5090998;28;20044;-70
2021/01/11 08:15:33;;;;;;;27.42;11.73;;;;;;;-0.15;74.24;100108.34;5089302;28;20296;-71
2021/01/11 08:18:02;;;;;;;25.88;11.50;;;;;;;-0.08;74.33;100107.84;5075753;28;20041;-69
2021/01/11 08:20:35;;;;;;;31.75;12.93;;;;;;;-0.01;74.66;100107.34;5075605;28;20048;-70
2021/01/11 08:23:07;;;;;;;26.70;12.25;;;;;;;0.10;74.82;100115.38;5075626;28;20067;-70
2021/01/11 08:25:36;;;;;;;29.52;13.20;;;;;;;0.11;73.78;100111.22;5075640;28;20044;-69
2021/01/11 08:28:04;;;;;;;28.33;13.50;;;;;;;0.14;73.62;100111.38;5075457;28;20393;-70
2021/01/11 08:30:33;;;;;;;30.02;12.25;;;;;;;0.16;73.54;100104.78;5075371;28;20047;-68
2021/01/11 08:33:06;;;;;;;30.88;13.43;;;;;;;0.11;72.88;100092.03;5075460;28;20053;-68
2021/01/11 08:35:35;;;;;;;29.60;13.30;;;;;;;0.17;72.55;100101.50;5075417;28;20048;-68
2021/01/11 08:38:05;;;;;;;28.60;12.75;;;;;;;0.26;72.66;100106.94;5075306;28;20052;-68
2021/01/11 08:40:34;;;;;;;27.73;12.48;;;;;;;0.44;73.40;100112.78;5075210;28;20053;-69
2021/01/11 08:43:10;;;;;;;31.80;13.98;;;;;;;0.20;72.43;100101.59;5074142;28;20102;-69
2021/01/11 08:45:40;;;;;;;30.40;12.15;;;;;;;0.15;71.42;100103.03;5075273;28;20119;-69
2021/01/11 08:48:09;;;;;;;34.55;18.20;;;;;;;0.21;71.45;100108.38;5074866;28;20044;-71
2021/01/11 08:50:40;;;;;;;31.98;13.32;;;;;;;0.37;71.55;100096.59;5075122;28;20049;-69
2021/01/11 08:53:19;;;;;;;29.88;12.85;;;;;;;0.64;70.97;100114.56;5074979;28;20127;-68
2021/01/11 08:56:00;;;;;;;32.92;13.98;;;;;;;0.74;71.12;100114.19;5074990;28;20072;-68
2021/01/11 08:58:30;;;;;;;33.47;14.40;;;;;;;1.04;70.99;100117.19;5073740;28;20044;-69
2021/01/11 09:01:09;;;;;;;31.50;13.77;;;;;;;1.05;69.95;100117.28;5074874;28;20079;-68
2021/01/11 09:03:45;;;;;;;31.42;13.50;;;;;;;0.60;68.49;100085.09;5074744;28;20049;-68
2021/01/11 09:06:33;;;;;;;30.60;12.48;;;;;;;0.76;67.88;100111.75;5074811;28;20057;-68
2021/01/11 09:09:05;;;;;;;25.25;11.32;;;;;;;0.74;67.87;100114.19;5074738;28;20049;-68
2021/01/11 09:11:33;;;;;;;23.80;11.43;;;;;;;0.77;68.21;100076.63;5075015;28;20048;-68
2021/01/11 09:14:07;;;;;;;23.83;11.32;;;;;;;1.08;67.94;100122.41;5074520;28;20486;-68
2021/01/11 09:16:37;;;;;;;23.45;11.23;;;;;;;1.07;67.20;100119.84;5081064;28;20092;-68
2021/01/11 09:19:06;;;;;;;21.50;9.68;;;;;;;1.02;66.11;100107.09;5082313;28;20067;-68
2021/01/11 09:21:59;;;;;;;25.05;11.35;;;;;;;1.16;65.81;100118.59;5074804;28;20047;-68
2021/01/11 09:24:32;;;;;;;23.13;10.45;;;;;;;1.21;65.79;100119.66;5074196;28;20402;-68
2021/01/11 09:27:11;;;;;;;25.17;11.10;;;;;;;1.12;66.45;100124.28;5074821;28;20498;-69
2021/01/11 09:29:38;;;;;;;26.33;11.88;;;;;;;1.12;65.87;100118.41;5074201;28;20281;-68
2021/01/11 09:32:06;;;;;;;32.20;11.80;;;;;;;1.22;65.70;100121.34;5074252;28;20070;-68
2021/01/11 09:34:40;;;;;;;28.63;11.27;;;;;;;1.39;66.55;100126.25;5074166;28;20061;-68
2021/01/11 09:37:12;;;;;;;29.00;11.63;;;;;;;1.44;65.86;100122.28;5074424;28;20044;-68
2021/01/11 09:39:46;;;;;;;23.92;10.88;;;;;;;1.70;65.60;100125.09;5074110;28;20045;-68
2021/01/11 09:42:15;;;;;;;31.17;12.05;;;;;;;1.73;65.54;100122.69;5074339;28;20117;-68
2021/01/11 09:44:43;;;;;;;26.65;11.68;;;;;;;1.55;64.45;100128.63;5073880;28;20142;-68
2021/01/11 09:47:12;;;;;;;29.70;13.10;;;;;;;1.65;64.82;100123.19;5074017;28;20066;-68
2021/01/11 09:49:43;;;;;;;30.83;11.18;;;;;;;1.51;64.71;100094.09;5073562;28;20068;-68
2021/01/11 09:52:12;;;;;;;30.73;12.00;;;;;;;1.85;64.22;100132.38;5073839;28;20044;-68
2021/01/11 09:54:41;;;;;;;28.75;12.13;;;;;;;1.93;63.84;100136.09;5074233;28;20067;-68
2021/01/11 09:57:10;;;;;;;25.92;11.80;;;;;;;1.93;62.92;100131.06;5073845;28;20036;-68
2021/01/11 09:59:38;;;;;;;28.13;13.32;;;;;;;2.19;64.38;100124.53;5073835;28;20045;-68
2021/01/11 10:02:07;;;;;;;28.52;12.90;;;;;;;2.26;63.42;100129.88;5073541;28;20051;-68
2021/01/11 10:04:38;;;;;;;24.67;10.68;;;;;;;2.39;63.01;100127.06;5073817;28;20037;-68
2021/01/11 10:07:07;;;;;;;22.75;10.50;;;;;;;2.48;63.30;100129.91;5073658;28;20045;-67
2021/01/11 10:09:36;;;;;;;27.75;11.38;;;;;;;2.41;61.20;100124.56;5073589;28;20075;-68
2021/01/11 10:12:05;;;;;;;23.38;11.23;;;;;;;2.35;61.14;100117.63;5073625;28;20086;-68
2021/01/11 10:14:33;;;;;;;26.65;12.25;;;;;;;2.49;61.41;100121.56;5073633;28;20100;-68
2021/01/11 10:17:01;;;;;;;23.23;11.57;;;;;;;2.52;61.98;100109.06;5073537;28;20498;-68
2021/01/11 10:19:40;;;;;;;26.05;11.40;;;;;;;2.58;62.83;100109.31;5073724;28;20053;-68
2021/01/11 10:22:08;;;;;;;27.13;11.35;;;;;;;2.65;62.93;100108.75;5073458;28;20118;-68
2021/01/11 10:24:37;;;;;;;23.92;11.25;;;;;;;2.40;62.59;100033.03;5073380;28;20041;-68
2021/01/11 10:27:05;;;;;;;22.48;11.00;;;;;;;3.07;62.58;100103.56;5075596;28;20060;-68
2021/01/11 10:29:33;;;;;;;23.58;10.93;;;;;;;2.97;62.24;100091.41;5093618;28;20116;-68
2021/01/11 10:32:12;;;;;;;22.58;10.68;;;;;;;3.15;61.69;100087.00;5093678;28;20135;-68
2021/01/11 10:34:40;;;;;;;25.05;11.23;;;;;;;3.28;61.31;100089.16;5093563;28;20160;-68
2021/01/11 10:37:07;;;;;;;29.05;11.13;;;;;;;3.59;61.94;100091.94;5093552;28;20044;-68
2021/01/11 10:39:35;;;;;;;24.70;10.52;;;;;;;3.66;61.27;100093.84;5093603;28;20482;-68
2021/01/11 10:42:04;;;;;;;23.85;10.52;;;;;;;3.63;60.41;100086.16;5093516;28;20098;-68
2021/01/11 10:44:35;;;;;;;23.55;10.23;;;;;;;3.70;59.82;100084.69;5093443;28;20048;-68
2021/01/11 10:47:03;;;;;;;23.38;11.18;;;;;;;3.62;59.76;100081.09;5093819;28;20037;-68
2021/01/11 10:49:31;;;;;;;20.48;9.57;;;;;;;3.79;58.24;100085.84;5093330;28;20108;-68
2021/01/11 10:51:58;;;;;;;22.75;9.75;;;;;;;3.62;56.83;100081.09;5093463;28;20044;-67
2021/01/11 10:54:26;;;;;;;18.17;8.75;;;;;;;3.45;56.81;100072.09;5093442;28;20047;-68
2021/01/11 10:56:55;;;;;;;18.33;8.38;;;;;;;3.54;56.11;100072.38;5093451;28;20044;-68
2021/01/11 10:59:26;;;;;;;17.20;8.45;;;;;;;3.66;56.16;100070.28;5093434;28;20076;-67
2021/01/11 11:01:54;;;;;;;20.00;8.73;;;;;;;3.38;55.21;100069.34;5093395;28;20085;-67
2021/01/11 11:04:24;;;;;;;20.08;8.40;;;;;;;3.21;55.67;100072.13;5093201;28;20098;-67
2021/01/11 11:06:56;;;;;;;18.90;9.07;;;;;;;3.83;56.26;100075.06;5096537;28;20037;-67
2021/01/11 11:09:24;;;;;;;17.13;8.13;;;;;;;4.07;55.71;100073.31;5097572;28;20040;-67
2021/01/11 11:11:58;;;;;;;18.85;8.25;;;;;;;4.17;53.70;100063.50;5097284;28;20052;-67
2021/01/11 11:14:32;;;;;;;22.52;10.70;;;;;;;4.01;54.48;100067.19;5097215;28;20040;-67
2021/01/11 11:17:03;;;;;;;20.42;10.23;;;;;;;3.78;54.12;100053.00;5097284;28;20044;-67
2021/01/11 11:19:31;;;;;;;15.88;8.43;;;;;;;3.84;54.83;100059.09;5097114;28;20076;-67
2021/01/11 11:21:58;;;;;;;21.27;8.77;;;;;;;4.07;54.05;100068.28;5097064;28;20457;-67
2021/01/11 11:24:29;;;;;;;17.45;8.02;;;;;;;3.91;54.50;100052.59;5097037;28;20044;-67
2021/01/11 11:27:01;;;;;;;16.13;8.13;;;;;;;4.06;54.39;100035.38;5096947;28;20513;-67
2021/01/11 11:29:29;;;;;;;23.40;9.70;;;;;;;4.39;54.26;100046.47;5096880;28;20032;-67
2021/01/11 11:31:59;;;;;;;18.60;8.75;;;;;;;4.02;54.57;100048.72;5097103;28;20063;-67
2021/01/11 11:34:26;;;;;;;18.88;8.68;;;;;;;3.98;55.49;100042.72;5096835;28;20043;-67